createdAt,value
2018-10-07T00:01:47.010Z,1.60
2018-10-07T00:04:15.338Z,1.33
2018-10-07T00:06:43.657Z,1.83
2018-10-07T00:09:11.962Z,2.17
2018-10-07T00:11:40.292Z,1.20
2018-10-07T00:14:08.605Z,2.47
2018-10-07T00:16:36.882Z,1.07
2018-10-07T00:19:05.184Z,2.93
2018-10-07T00:21:33.430Z,2.00
2018-10-07T00:24:01.750Z,0.80
2018-10-07T00:26:30.048Z,1.27
2018-10-07T00:28:58.321Z,1.53
2018-10-07T00:31:26.606Z,1.57
2018-10-07T00:33:54.887Z,1.33
2018-10-07T00:36:23.217Z,1.83
2018-10-07T00:38:51.522Z,1.93
2018-10-07T00:41:19.821Z,2.23
2018-10-07T00:43:48.122Z,2.00
2018-10-07T00:46:16.446Z,1.50
2018-10-07T00:48:44.777Z,2.03
2018-10-07T00:51:13.046Z,1.33
2018-10-07T00:53:41.314Z,1.87
2018-10-07T00:56:09.684Z,2.20
2018-10-07T00:58:37.993Z,1.97
2018-10-07T01:01:06.306Z,2.13
2018-10-07T01:03:34.544Z,2.37
2018-10-07T01:06:02.901Z,1.90
2018-10-07T01:08:31.284Z,1.47
2018-10-07T01:10:59.629Z,2.23
2018-10-07T01:13:27.925Z,1.20
2018-10-07T01:15:56.202Z,1.40
2018-10-07T01:18:24.435Z,3.10
2018-10-07T01:20:52.734Z,2.67
2018-10-07T01:23:21.051Z,2.40
2018-10-07T01:25:49.325Z,2.70
2018-10-07T01:28:17.656Z,2.63
2018-10-07T01:30:45.953Z,2.47
2018-10-07T01:33:14.313Z,3.07
2018-10-07T01:35:42.590Z,3.83
2018-10-07T01:38:10.889Z,3.83
2018-10-07T01:40:39.180Z,2.23
2018-10-07T01:43:07.447Z,3.77
2018-10-07T01:45:35.744Z,3.03
2018-10-07T01:48:04.068Z,3.13
2018-10-07T01:50:32.476Z,2.53
2018-10-07T01:53:00.769Z,3.43
2018-10-07T01:55:29.049Z,2.50
2018-10-07T01:57:57.384Z,2.83
2018-10-07T02:00:25.681Z,2.70
2018-10-07T02:02:54.038Z,4.27
2018-10-07T02:05:22.437Z,2.70
2018-10-07T02:07:50.888Z,3.03
2018-10-07T02:10:19.317Z,2.93
2018-10-07T02:12:47.650Z,2.03
2018-10-07T02:15:15.953Z,2.60
2018-10-07T02:17:44.274Z,3.00
2018-10-07T02:20:12.582Z,3.07
2018-10-07T02:22:40.859Z,1.87
2018-10-07T02:25:09.158Z,3.40
2018-10-07T02:27:37.450Z,2.63
2018-10-07T02:30:05.810Z,1.97
2018-10-07T02:32:34.105Z,1.03
2018-10-07T02:35:02.371Z,2.00
2018-10-07T02:37:30.693Z,1.33
2018-10-07T02:39:58.947Z,1.50
2018-10-07T02:42:27.269Z,2.07
2018-10-07T02:44:55.593Z,0.83
2018-10-07T02:47:23.946Z,1.77
2018-10-07T02:49:52.273Z,1.30
2018-10-07T02:52:25.824Z,1.07
2018-10-07T02:54:54.216Z,1.23
2018-10-07T02:57:22.768Z,1.03
2018-10-07T02:59:51.550Z,0.80
2018-10-07T03:02:19.843Z,0.80
2018-10-07T03:04:48.354Z,0.83
2018-10-07T03:07:16.405Z,0.40
2018-10-07T03:09:44.678Z,0.97
2018-10-07T03:12:12.950Z,0.67
2018-10-07T03:14:41.202Z,0.97
2018-10-07T03:17:09.481Z,0.90
2018-10-07T03:19:37.727Z,1.10
2018-10-07T03:22:05.966Z,1.03
2018-10-07T03:24:34.233Z,1.00
2018-10-07T03:27:02.510Z,0.40
2018-10-07T03:29:30.837Z,0.70
2018-10-07T03:31:59.074Z,0.83
2018-10-07T03:34:27.346Z,0.60
2018-10-07T03:36:55.618Z,0.70
2018-10-07T03:39:23.896Z,0.57
2018-10-07T03:41:52.174Z,0.80
2018-10-07T03:44:20.442Z,1.40
2018-10-07T03:46:48.702Z,0.40
2018-10-07T03:49:16.995Z,1.53
2018-10-07T03:51:45.348Z,0.53
2018-10-07T03:54:13.646Z,0.43
2018-10-07T03:56:41.894Z,0.70
2018-10-07T03:59:10.181Z,0.47
2018-10-07T04:01:38.470Z,0.53
2018-10-07T04:04:06.755Z,0.50
2018-10-07T04:06:35.050Z,0.50
2018-10-07T04:09:04.143Z,0.50
2018-10-07T04:11:32.398Z,0.97
2018-10-07T04:14:00.680Z,0.50
2018-10-07T04:16:28.955Z,0.33
2018-10-07T04:18:57.224Z,0.30
2018-10-07T04:21:25.502Z,0.60
2018-10-07T04:23:53.748Z,0.70
2018-10-07T04:26:22.054Z,0.40
2018-10-07T04:28:50.328Z,0.97
2018-10-07T04:31:18.632Z,0.37
2018-10-07T04:33:46.889Z,0.37
2018-10-07T04:36:15.275Z,0.60
2018-10-07T04:38:43.552Z,0.50
2018-10-07T04:41:11.809Z,0.57
2018-10-07T04:43:40.066Z,0.70
2018-10-07T04:46:08.361Z,0.90
2018-10-07T04:48:36.647Z,0.60
2018-10-07T04:51:04.901Z,0.50
2018-10-07T04:53:33.244Z,0.40
2018-10-07T04:56:01.502Z,0.30
2018-10-07T04:58:29.855Z,0.30
2018-10-07T05:00:58.114Z,0.60
2018-10-07T05:03:26.394Z,0.40
2018-10-07T05:05:54.705Z,0.60
2018-10-07T05:08:23.205Z,0.50
2018-10-07T05:10:52.699Z,0.50
2018-10-07T05:13:54.620Z,0.47
2018-10-07T05:16:29.042Z,0.40
2018-10-07T05:18:57.762Z,0.50
2018-10-07T05:21:26.026Z,0.40
2018-10-07T05:23:54.345Z,0.30
2018-10-07T05:26:22.637Z,0.20
2018-10-07T05:28:50.913Z,0.30
2018-10-07T05:31:19.225Z,0.40
2018-10-07T05:33:47.553Z,0.30
2018-10-07T05:36:15.813Z,0.30
2018-10-07T05:38:44.146Z,0.60
2018-10-07T05:41:12.394Z,0.30
2018-10-07T05:43:40.658Z,0.70
2018-10-07T05:46:08.928Z,0.50
2018-10-07T05:48:37.194Z,0.40
2018-10-07T05:51:05.504Z,0.27
2018-10-07T05:53:33.827Z,0.40
2018-10-07T05:56:02.084Z,0.40
2018-10-07T05:58:30.636Z,0.43
2018-10-07T06:01:09.923Z,0.70
2018-10-07T06:03:47.774Z,0.37
2018-10-07T06:06:16.076Z,0.43
2018-10-07T06:08:45.217Z,0.43
2018-10-07T06:11:14.136Z,0.30
2018-10-07T06:13:42.443Z,0.50
2018-10-07T06:16:10.740Z,0.50
2018-10-07T06:18:39.070Z,0.60
2018-10-07T06:21:07.366Z,0.50
2018-10-07T06:23:35.647Z,0.40
2018-10-07T06:26:03.949Z,0.43
2018-10-07T06:28:32.252Z,0.43
2018-10-07T06:31:00.550Z,0.60
2018-10-07T06:33:28.834Z,0.40
2018-10-07T06:35:57.174Z,0.40
2018-10-07T06:38:25.431Z,0.50
2018-10-07T06:40:53.692Z,0.60
2018-10-07T06:43:21.957Z,0.50
2018-10-07T06:45:50.217Z,0.53
2018-10-07T06:48:18.558Z,0.80
2018-10-07T06:50:46.849Z,0.50
2018-10-07T06:53:15.365Z,0.77
2018-10-07T06:55:43.905Z,0.77
2018-10-07T06:58:12.192Z,0.57
2018-10-07T07:00:40.589Z,0.60
2018-10-07T07:03:08.922Z,0.63
2018-10-07T07:05:37.163Z,0.50
2018-10-07T07:08:05.449Z,0.30
2018-10-07T07:10:33.725Z,0.60
2018-10-07T07:13:02.006Z,0.47
2018-10-07T07:15:30.266Z,0.33
2018-10-07T07:17:58.650Z,0.83
2018-10-07T07:20:26.932Z,0.40
2018-10-07T07:22:55.188Z,0.33
2018-10-07T07:25:23.482Z,0.30
2018-10-07T07:27:51.722Z,0.80
2018-10-07T07:30:20.076Z,0.60
2018-10-07T07:32:48.369Z,0.30
2018-10-07T07:35:16.718Z,0.43
2018-10-07T07:37:45.071Z,0.40
2018-10-07T07:40:13.398Z,0.40
2018-10-07T07:42:41.674Z,0.40
2018-10-07T07:45:10.728Z,0.40
2018-10-07T07:47:39.177Z,0.60
2018-10-07T07:50:07.486Z,0.67
2018-10-07T07:52:35.802Z,0.50
2018-10-07T07:55:04.085Z,0.43
2018-10-07T07:57:32.764Z,0.70
2018-10-07T08:00:02.599Z,0.53
2018-10-07T08:02:31.114Z,0.73
2018-10-07T08:04:59.374Z,0.60
2018-10-07T08:07:27.932Z,0.57
2018-10-07T08:09:56.429Z,0.40
2018-10-07T08:12:24.765Z,0.40
2018-10-07T08:14:53.076Z,0.40
2018-10-07T08:17:21.482Z,0.37
2018-10-07T08:19:50.433Z,0.30
2018-10-07T08:22:18.722Z,0.50
2018-10-07T08:24:47.026Z,0.23
2018-10-07T08:27:15.329Z,0.30
2018-10-07T08:29:43.646Z,0.27
2018-10-07T08:32:11.863Z,0.30
2018-10-07T08:34:40.179Z,0.20
2018-10-07T08:37:08.569Z,0.20
2018-10-07T08:39:36.951Z,0.30
2018-10-07T08:42:05.332Z,0.50
2018-10-07T08:44:33.868Z,0.37
2018-10-07T08:47:02.177Z,0.30
2018-10-07T08:49:30.421Z,0.40
2018-10-07T08:51:59.205Z,0.40
2018-10-07T08:54:27.562Z,0.30
2018-10-07T08:56:55.868Z,0.40
2018-10-07T08:59:24.124Z,0.30
2018-10-07T09:01:52.468Z,0.30
2018-10-07T09:04:20.702Z,0.40
2018-10-07T09:06:49.102Z,0.30
2018-10-07T09:09:17.351Z,0.20
2018-10-07T09:11:46.182Z,0.30
2018-10-07T09:14:14.469Z,0.20
2018-10-07T09:16:42.716Z,0.40
2018-10-07T09:19:11.028Z,0.40
2018-10-07T09:21:39.520Z,0.30
2018-10-07T09:24:07.780Z,0.40
2018-10-07T09:26:36.037Z,0.33
2018-10-07T09:29:04.533Z,0.87
2018-10-07T09:31:32.789Z,0.47
2018-10-07T09:34:01.046Z,0.23
2018-10-07T09:36:29.370Z,0.30
2018-10-07T09:38:57.670Z,0.30
2018-10-07T09:41:25.986Z,0.30
2018-10-07T09:43:54.304Z,0.20
2018-10-07T09:46:22.786Z,0.33
2018-10-07T09:48:51.123Z,0.20
2018-10-07T09:51:19.433Z,0.30
2018-10-07T09:53:47.704Z,0.20
2018-10-07T09:56:15.981Z,0.20
2018-10-07T09:58:45.025Z,0.27
2018-10-07T10:01:13.313Z,0.23
2018-10-07T10:03:41.539Z,0.20
2018-10-07T10:06:09.790Z,0.30
2018-10-07T10:08:38.127Z,0.20
2018-10-07T10:11:06.663Z,0.30
2018-10-07T10:13:34.987Z,0.30
2018-10-07T10:16:03.548Z,0.43
2018-10-07T10:18:41.464Z,0.30
2018-10-07T10:21:17.211Z,0.20
2018-10-07T10:24:15.421Z,0.53
2018-10-07T10:27:21.728Z,0.20
2018-10-07T10:29:52.597Z,0.40
2018-10-07T10:32:26.733Z,0.33
2018-10-07T10:35:04.695Z,0.30
2018-10-07T10:37:45.263Z,0.30
2018-10-07T10:40:30.314Z,0.30
2018-10-07T10:43:04.574Z,0.40
2018-10-07T10:45:45.414Z,0.20
2018-10-07T10:48:18.278Z,0.20
2018-10-07T10:51:00.836Z,0.40
2018-10-07T10:53:42.262Z,0.20
2018-10-07T10:56:15.440Z,0.20
2018-10-07T10:58:54.561Z,0.40
2018-10-07T11:01:26.872Z,0.47
2018-10-07T11:04:10.275Z,0.43
2018-10-07T11:06:46.026Z,0.40
2018-10-07T11:09:26.538Z,0.30
2018-10-07T11:12:01.816Z,0.40
2018-10-07T11:17:49.678Z,0.57
2018-10-07T11:21:26.229Z,0.53
2018-10-07T11:24:01.542Z,0.23
2018-10-07T11:26:38.801Z,0.30
2018-10-07T11:30:16.042Z,0.23
2018-10-07T11:34:58.728Z,0.37
2018-10-07T11:37:39.334Z,0.33
2018-10-07T11:40:18.873Z,0.40
2018-10-07T11:42:51.863Z,0.30
2018-10-07T11:45:27.610Z,0.40
2018-10-07T11:49:10.052Z,0.20
2018-10-07T11:51:50.807Z,0.30
2018-10-07T11:54:27.229Z,0.50
2018-10-07T11:56:55.492Z,0.20
2018-10-07T11:59:23.813Z,0.30
2018-10-07T12:01:52.074Z,0.30
2018-10-07T12:04:20.321Z,0.30
2018-10-07T12:06:49.701Z,0.40
2018-10-07T12:09:17.997Z,0.40
2018-10-07T12:11:46.232Z,0.20
2018-10-07T12:14:14.469Z,0.27
2018-10-07T12:16:42.730Z,0.20
2018-10-07T12:19:10.985Z,0.30
2018-10-07T12:21:40.108Z,0.20
2018-10-07T12:24:08.372Z,0.20
2018-10-07T12:26:36.622Z,0.50
2018-10-07T12:29:05.204Z,0.23
2018-10-07T12:31:33.406Z,0.20
2018-10-07T12:34:01.696Z,0.30
2018-10-07T12:36:29.999Z,0.20
2018-10-07T12:38:58.246Z,0.30
2018-10-07T12:41:26.528Z,0.23
2018-10-07T12:43:54.796Z,0.20
2018-10-07T12:46:23.127Z,0.20
2018-10-07T12:48:51.830Z,0.20
2018-10-07T12:51:20.134Z,0.17
2018-10-07T12:53:48.730Z,0.10
2018-10-07T12:56:17.041Z,0.10
2018-10-07T12:58:45.311Z,0.20
2018-10-07T13:01:13.883Z,0.20
2018-10-07T13:03:42.905Z,0.10
2018-10-07T13:06:11.147Z,0.10
2018-10-07T13:08:39.430Z,0.17
2018-10-07T13:11:07.968Z,0.10
2018-10-07T13:13:36.226Z,0.10
2018-10-07T13:16:04.493Z,0.10
2018-10-07T13:18:32.828Z,0.10
2018-10-07T13:21:01.104Z,0.10
2018-10-07T13:23:29.370Z,0.10
2018-10-07T13:25:57.690Z,0.10
2018-10-07T13:28:26.026Z,0.10
2018-10-07T13:30:54.246Z,0.10
2018-10-07T13:33:22.596Z,0.20
2018-10-07T13:35:50.859Z,0.10
2018-10-07T13:38:19.204Z,0.00
2018-10-07T13:40:47.497Z,0.10
2018-10-07T13:43:15.766Z,0.10
2018-10-07T13:45:44.092Z,0.10
2018-10-07T13:48:12.401Z,0.10
2018-10-07T13:50:40.727Z,0.10
2018-10-07T13:53:09.042Z,0.10
2018-10-07T13:55:37.366Z,0.10
2018-10-07T13:58:05.706Z,0.00
2018-10-07T14:00:34.001Z,0.20
2018-10-07T14:03:02.442Z,0.23
2018-10-07T14:05:30.881Z,0.10
2018-10-07T14:07:59.160Z,0.10
2018-10-07T14:10:27.412Z,0.10
2018-10-07T14:12:55.811Z,0.10
2018-10-07T14:15:24.230Z,0.40
2018-10-07T14:17:52.522Z,0.10
2018-10-07T14:20:20.931Z,0.10
2018-10-07T14:22:49.616Z,0.50
2018-10-07T14:25:17.999Z,0.10
2018-10-07T14:27:46.622Z,0.10
2018-10-07T14:30:14.962Z,0.20
2018-10-07T14:32:43.285Z,0.13
2018-10-07T14:35:11.606Z,0.30
2018-10-07T14:37:39.938Z,0.20
2018-10-07T14:40:08.257Z,0.13
2018-10-07T14:42:36.728Z,0.30
2018-10-07T14:45:05.146Z,0.13
2018-10-07T14:47:33.530Z,0.10
2018-10-07T14:50:01.834Z,0.33
2018-10-07T14:52:30.122Z,0.20
2018-10-07T14:54:58.645Z,0.20
2018-10-07T14:57:26.862Z,0.30
2018-10-07T14:59:55.416Z,0.20
2018-10-07T15:02:24.134Z,0.30
2018-10-07T15:04:54.132Z,0.27
2018-10-07T15:07:25.223Z,0.40
2018-10-07T15:09:53.567Z,0.53
2018-10-07T15:12:22.006Z,0.30
2018-10-07T15:14:50.348Z,0.40
2018-10-07T15:17:18.816Z,0.30
2018-10-07T15:19:47.455Z,0.30
2018-10-07T15:22:15.804Z,0.40
2018-10-07T15:24:44.109Z,0.27
2018-10-07T15:27:12.720Z,0.20
2018-10-07T15:29:41.134Z,0.43
2018-10-07T15:32:09.513Z,0.20
2018-10-07T15:34:38.621Z,0.40
2018-10-07T15:37:07.803Z,0.50
2018-10-07T15:39:36.045Z,0.20
2018-10-07T15:42:04.448Z,0.50
2018-10-07T15:44:32.724Z,0.70
2018-10-07T15:47:01.062Z,0.40
2018-10-07T15:49:29.451Z,0.60
2018-10-07T15:51:57.750Z,0.40
2018-10-07T15:54:26.085Z,0.50
2018-10-07T15:56:55.056Z,0.60
2018-10-07T15:59:23.809Z,0.20
2018-10-07T16:01:52.193Z,0.50
2018-10-07T16:04:20.492Z,0.33
2018-10-07T16:06:48.756Z,0.20
2018-10-07T16:09:17.049Z,0.70
2018-10-07T16:11:45.520Z,0.30
2018-10-07T16:14:13.778Z,0.30
2018-10-07T16:16:42.081Z,0.37
2018-10-07T16:19:10.378Z,0.20
2018-10-07T16:21:38.648Z,0.30
2018-10-07T16:24:06.990Z,0.40
2018-10-07T16:26:35.305Z,0.40
2018-10-07T16:29:03.695Z,0.40
2018-10-07T16:31:31.997Z,0.60
2018-10-07T16:34:01.089Z,0.57
2018-10-07T16:36:29.397Z,0.50
2018-10-07T16:38:57.699Z,0.40
2018-10-07T16:41:26.081Z,0.33
2018-10-07T16:43:54.365Z,0.43
2018-10-07T16:46:22.663Z,0.20
2018-10-07T16:48:51.019Z,0.47
2018-10-07T16:51:19.293Z,0.57
2018-10-07T16:53:47.536Z,0.33
2018-10-07T16:56:15.830Z,0.40
2018-10-07T16:58:44.084Z,0.50
2018-10-07T17:01:12.398Z,0.50
2018-10-07T17:03:40.693Z,0.60
2018-10-07T17:06:09.104Z,0.50
2018-10-07T17:08:37.364Z,0.40
2018-10-07T17:11:05.685Z,0.87
2018-10-07T17:13:33.933Z,0.40
2018-10-07T17:16:02.247Z,0.90
2018-10-07T17:18:30.568Z,1.97
2018-10-07T17:21:01.802Z,1.93
2018-10-07T17:23:30.124Z,2.07
2018-10-07T17:25:58.446Z,1.53
2018-10-07T17:28:26.771Z,0.73
2018-10-07T17:30:55.082Z,0.87
2018-10-07T17:33:23.397Z,0.40
2018-10-07T17:35:51.632Z,1.30
2018-10-07T17:38:20.365Z,0.80
2018-10-07T17:40:48.699Z,1.03
2018-10-07T17:43:16.969Z,0.70
2018-10-07T17:45:45.258Z,0.63
2018-10-07T17:48:13.682Z,0.50
2018-10-07T17:50:41.930Z,0.90
2018-10-07T17:53:10.497Z,1.30
2018-10-07T17:55:38.970Z,0.90
2018-10-07T17:58:08.140Z,0.80
2018-10-07T18:00:36.487Z,0.57
2018-10-07T18:03:06.050Z,1.13
2018-10-07T18:05:34.325Z,1.20
2018-10-07T18:08:02.674Z,1.23
2018-10-07T18:10:31.085Z,0.70
2018-10-07T18:12:59.404Z,0.90
2018-10-07T18:15:27.689Z,1.00
2018-10-07T18:17:55.997Z,1.03
2018-10-07T18:20:24.298Z,1.00
2018-10-07T18:22:52.676Z,0.87
2018-10-07T18:25:21.156Z,1.10
2018-10-07T18:27:49.577Z,0.50
2018-10-07T18:30:18.930Z,1.20
2018-10-07T18:32:48.030Z,1.13
2018-10-07T18:35:16.369Z,0.70
2018-10-07T18:37:44.652Z,0.93
2018-10-07T18:40:13.143Z,0.73
2018-10-07T18:42:41.325Z,0.90
2018-10-07T18:45:09.759Z,1.53
2018-10-07T18:47:38.034Z,1.03
2018-10-07T18:50:06.290Z,0.73
2018-10-07T18:52:35.660Z,1.23
2018-10-07T18:55:12.303Z,0.53
2018-10-07T18:57:40.677Z,1.43
2018-10-07T19:00:09.967Z,0.87
2018-10-07T19:02:38.537Z,1.20
2018-10-07T19:05:06.886Z,1.30
2018-10-07T19:07:35.233Z,0.77
2018-10-07T19:10:03.730Z,0.90
2018-10-07T19:12:32.025Z,0.67
2018-10-07T19:15:00.286Z,0.60
2018-10-07T19:17:28.791Z,0.97
2018-10-07T19:19:57.057Z,0.50
2018-10-07T19:22:25.378Z,0.70
2018-10-07T19:24:53.812Z,0.97
2018-10-07T19:27:22.093Z,0.53
2018-10-07T19:29:50.423Z,0.77
2018-10-07T19:32:18.690Z,1.33
2018-10-07T19:34:47.017Z,0.43
2018-10-07T19:37:15.489Z,0.90
2018-10-07T19:39:43.618Z,0.80
2018-10-07T19:42:11.978Z,0.60
2018-10-07T19:44:40.196Z,0.60
2018-10-07T19:47:08.448Z,0.60
2018-10-07T19:49:36.773Z,0.50
2018-10-07T19:52:05.079Z,0.73
2018-10-07T19:54:33.364Z,0.57
2018-10-07T19:57:01.649Z,1.07
2018-10-07T19:59:29.934Z,1.33
2018-10-07T20:01:58.252Z,0.47
2018-10-07T20:04:26.558Z,0.80
2018-10-07T20:06:54.822Z,0.90
2018-10-07T20:09:23.099Z,0.70
2018-10-07T20:11:51.362Z,0.93
2018-10-07T20:14:19.696Z,0.60
2018-10-07T20:16:47.956Z,0.50
2018-10-07T20:19:16.347Z,0.90
2018-10-07T20:21:44.661Z,0.60
2018-10-07T20:24:12.964Z,1.23
2018-10-07T20:26:41.262Z,0.77
2018-10-07T20:29:09.652Z,0.30
2018-10-07T20:31:37.934Z,0.80
2018-10-07T20:34:06.375Z,0.70
2018-10-07T20:36:34.768Z,0.40
2018-10-07T20:39:03.333Z,0.83
2018-10-07T20:41:31.674Z,0.87
2018-10-07T20:44:00.053Z,0.80
2018-10-07T20:46:28.335Z,1.47
2018-10-07T20:48:56.639Z,0.47
2018-10-07T20:51:24.900Z,1.30
2018-10-07T20:53:53.251Z,0.93
2018-10-07T20:56:21.592Z,0.43
2018-10-07T20:58:49.878Z,0.97
2018-10-07T21:01:18.273Z,0.73
2018-10-07T21:03:46.628Z,0.30
2018-10-07T21:06:14.966Z,0.70
2018-10-07T21:08:43.287Z,0.30
2018-10-07T21:11:11.593Z,0.40
2018-10-07T21:13:39.998Z,0.90
2018-10-07T21:16:08.292Z,0.53
2018-10-07T21:18:36.560Z,0.70
2018-10-07T21:21:04.904Z,0.77
2018-10-07T21:23:33.245Z,0.30
2018-10-07T21:26:01.526Z,0.87
2018-10-07T21:28:29.826Z,0.60
2018-10-07T21:30:58.158Z,0.70
2018-10-07T21:33:26.431Z,0.60
2018-10-07T21:35:54.721Z,0.70
2018-10-07T21:38:23.614Z,0.60
2018-10-07T21:40:51.966Z,0.97
2018-10-07T21:43:20.990Z,0.50
2018-10-07T21:45:49.258Z,1.07
2018-10-07T21:48:17.694Z,0.80
2018-10-07T21:50:46.023Z,1.13
2018-10-07T21:53:14.309Z,1.20
2018-10-07T21:55:42.689Z,0.80
2018-10-07T21:58:10.957Z,0.50
2018-10-07T22:00:39.256Z,0.80
2018-10-07T22:03:07.676Z,0.73
2018-10-07T22:05:35.945Z,1.10
2018-10-07T22:08:04.192Z,0.93
2018-10-07T22:10:32.510Z,0.40
2018-10-07T22:13:00.827Z,1.00
2018-10-07T22:15:29.214Z,0.70
2018-10-07T22:17:57.506Z,0.47
2018-10-07T22:20:25.845Z,0.87
2018-10-07T22:22:54.115Z,1.10
2018-10-07T22:25:22.425Z,0.70
2018-10-07T22:27:50.730Z,0.30
2018-10-07T22:30:19.015Z,0.40
2018-10-07T22:32:47.335Z,0.40
2018-10-07T22:35:15.613Z,1.00
2018-10-07T22:37:43.896Z,0.40
2018-10-07T22:40:12.185Z,0.80
2018-10-07T22:42:40.478Z,0.70
2018-10-07T22:45:08.723Z,0.60
2018-10-07T22:47:37.263Z,1.13
2018-10-07T22:50:05.574Z,0.60
2018-10-07T22:52:33.958Z,0.43
2018-10-07T22:55:02.311Z,0.30
2018-10-07T22:57:30.711Z,0.60
2018-10-07T22:59:59.032Z,0.57
2018-10-07T23:02:27.484Z,0.90
2018-10-07T23:04:55.860Z,0.30
2018-10-07T23:07:24.138Z,0.20
2018-10-07T23:09:52.468Z,0.37
2018-10-07T23:12:20.739Z,0.50
2018-10-07T23:14:49.652Z,0.40
2018-10-07T23:17:18.018Z,0.40
2018-10-07T23:19:46.313Z,0.40
2018-10-07T23:22:14.620Z,0.43
2018-10-07T23:24:42.880Z,0.40
2018-10-07T23:27:11.201Z,0.50
2018-10-07T23:29:39.438Z,0.30
2018-10-07T23:32:07.816Z,0.30
2018-10-07T23:34:36.078Z,0.43
2018-10-07T23:37:04.358Z,0.40
2018-10-07T23:39:32.661Z,0.57
2018-10-07T23:42:00.944Z,0.40
2018-10-07T23:44:29.290Z,0.50
2018-10-07T23:46:57.664Z,0.40
2018-10-07T23:49:25.936Z,0.57
2018-10-07T23:51:54.261Z,0.40
2018-10-07T23:54:22.548Z,0.43
2018-10-07T23:56:50.840Z,0.70
2018-10-07T23:59:19.104Z,0.90
